createdAt,value
2022-10-01T00:01:16.552Z,98.90
2022-10-01T00:04:18.330Z,98.36
2022-10-01T00:07:20.086Z,98.14
2022-10-01T00:10:24.074Z,98.42
2022-10-01T00:13:25.797Z,97.82
2022-10-01T00:16:29.212Z,98.13
2022-10-01T00:19:31.060Z,98.48
2022-10-01T00:22:33.785Z,98.38
2022-10-01T00:25:35.519Z,98.13
2022-10-01T00:28:37.337Z,98.10
2022-10-01T00:31:39.563Z,98.27
2022-10-01T00:34:41.546Z,97.79
2022-10-01T00:37:43.231Z,98.50
2022-10-01T00:40:44.956Z,98.94
2022-10-01T00:43:59.133Z,98.67
2022-10-01T00:47:21.978Z,99.23
2022-10-01T00:50:33.768Z,99.38
2022-10-01T00:53:35.577Z,98.99
2022-10-01T00:56:38.264Z,98.98
2022-10-01T00:59:40.053Z,99.18
2022-10-01T01:02:43.836Z,98.82
2022-10-01T01:05:50.215Z,98.73
2022-10-01T01:08:55.244Z,99.18
2022-10-01T01:12:10.862Z,99.38
2022-10-01T01:15:20.583Z,99.53
2022-10-01T01:18:40.345Z,99.86
2022-10-01T01:21:52.000Z,99.55
2022-10-01T01:25:07.357Z,99.89
2022-10-01T01:28:31.807Z,99.81
2022-10-01T01:31:40.422Z,99.93
2022-10-01T01:34:45.500Z,99.66
2022-10-01T01:37:53.549Z,99.81
2022-10-01T01:40:59.302Z,99.56
2022-10-01T01:44:03.102Z,99.91
2022-10-01T01:47:07.435Z,99.79
2022-10-01T01:50:10.913Z,99.46
2022-10-01T01:53:12.569Z,99.37
2022-10-01T01:56:14.319Z,99.36
2022-10-01T01:59:19.619Z,99.30
2022-10-01T02:02:26.866Z,99.18
2022-10-01T02:05:37.586Z,98.99
2022-10-01T02:09:14.265Z,99.35
2022-10-01T02:12:44.400Z,99.83
2022-10-01T02:15:59.810Z,100.00
2022-10-01T02:19:10.148Z,100.00
2022-10-01T02:22:18.924Z,100.00
2022-10-01T02:25:27.032Z,100.00
2022-10-01T02:28:33.418Z,100.00
2022-10-01T02:31:36.197Z,100.00
2022-10-01T02:34:40.493Z,100.00
2022-10-01T02:37:44.630Z,100.00
2022-10-01T02:40:48.218Z,100.00
2022-10-01T02:43:58.994Z,100.00
2022-10-01T02:47:07.836Z,100.00
2022-10-01T02:50:09.878Z,100.00
2022-10-01T02:53:21.303Z,100.00
2022-10-01T02:56:59.810Z,100.00
2022-10-01T03:00:06.612Z,100.00
2022-10-01T03:03:08.332Z,100.00
2022-10-01T03:06:09.940Z,100.00
2022-10-01T03:09:11.669Z,100.00
2022-10-01T03:12:13.308Z,100.00
2022-10-01T03:15:19.231Z,100.00
2022-10-01T03:18:20.968Z,100.00
2022-10-01T03:21:22.607Z,100.00
2022-10-01T03:24:24.371Z,100.00
2022-10-01T03:27:26.138Z,100.00
2022-10-01T03:30:28.498Z,100.00
2022-10-01T03:33:30.235Z,100.00
2022-10-01T03:36:31.979Z,100.00
2022-10-01T03:39:34.210Z,100.00
2022-10-01T03:42:35.829Z,100.00
2022-10-01T03:45:37.466Z,100.00
2022-10-01T03:48:39.185Z,100.00
2022-10-01T03:51:40.989Z,100.00
2022-10-01T03:54:42.681Z,100.00
2022-10-01T03:57:44.380Z,100.00
2022-10-01T04:00:47.751Z,100.00
2022-10-01T04:03:50.348Z,100.00
2022-10-01T04:06:52.101Z,100.00
2022-10-01T04:09:56.394Z,100.00
2022-10-01T04:12:58.073Z,100.00
2022-10-01T04:15:59.888Z,100.00
2022-10-01T04:19:03.576Z,100.00
2022-10-01T04:22:05.321Z,100.00
2022-10-01T04:25:10.938Z,100.00
2022-10-01T04:28:13.694Z,100.00
2022-10-01T04:31:24.332Z,100.00
2022-10-01T04:34:46.028Z,100.00
2022-10-01T04:37:48.115Z,100.00
2022-10-01T04:40:49.752Z,100.00
2022-10-01T04:43:51.794Z,100.00
2022-10-01T04:46:53.881Z,100.00
2022-10-01T04:49:55.622Z,100.00
2022-10-01T04:52:57.305Z,100.00
2022-10-01T04:55:58.947Z,100.00
2022-10-01T04:59:00.738Z,100.00
2022-10-01T05:02:02.422Z,100.00
2022-10-01T05:05:06.742Z,100.00
2022-10-01T05:08:08.450Z,100.00
2022-10-01T05:11:10.222Z,100.00
2022-10-01T05:14:12.356Z,100.00
2022-10-01T05:17:18.207Z,100.00
2022-10-01T05:20:23.163Z,100.00
2022-10-01T05:23:24.827Z,100.00
2022-10-01T05:26:26.759Z,100.00
2022-10-01T05:29:28.384Z,100.00
2022-10-01T05:32:31.306Z,100.00
2022-10-01T05:35:33.102Z,100.00
2022-10-01T05:38:37.685Z,100.00
2022-10-01T05:41:41.048Z,100.00
2022-10-01T05:44:46.250Z,100.00
2022-10-01T05:47:49.681Z,100.00
2022-10-01T05:50:51.824Z,100.00
2022-10-01T05:53:59.110Z,100.00
2022-10-01T05:57:00.799Z,100.00
2022-10-01T06:00:02.545Z,100.00
2022-10-01T06:03:13.791Z,100.00
2022-10-01T06:06:15.507Z,100.00
2022-10-01T06:09:17.445Z,100.00
2022-10-01T06:12:20.021Z,100.00
2022-10-01T06:15:21.811Z,100.00
2022-10-01T06:18:23.764Z,100.00
2022-10-01T06:21:26.404Z,100.00
2022-10-01T06:24:28.172Z,100.00
2022-10-01T06:27:29.755Z,100.00
2022-10-01T06:30:33.667Z,100.00
2022-10-01T06:33:36.191Z,100.00
2022-10-01T06:36:38.963Z,100.00
2022-10-01T06:39:40.718Z,100.00
2022-10-01T06:42:48.132Z,100.00
2022-10-01T06:45:50.034Z,100.00
2022-10-01T06:48:51.738Z,100.00
2022-10-01T06:52:11.840Z,100.00
2022-10-01T06:55:16.661Z,100.00
2022-10-01T06:58:21.605Z,100.00
2022-10-01T07:01:23.299Z,100.00
2022-10-01T07:04:25.808Z,100.00
2022-10-01T07:07:32.135Z,100.00
2022-10-01T07:10:35.518Z,100.00
2022-10-01T07:13:37.235Z,100.00
2022-10-01T07:16:39.435Z,100.00
2022-10-01T07:19:41.375Z,100.00
2022-10-01T07:22:43.619Z,100.00
2022-10-01T07:25:45.685Z,100.00
2022-10-01T07:28:47.329Z,100.00
2022-10-01T07:31:50.143Z,100.00
2022-10-01T07:35:10.752Z,100.00
2022-10-01T07:38:12.436Z,100.00
2022-10-01T07:41:17.309Z,100.00
2022-10-01T07:44:19.787Z,100.00
2022-10-01T07:47:22.306Z,100.00
2022-10-01T07:50:24.410Z,100.00
2022-10-01T07:53:26.582Z,100.00
2022-10-01T07:56:28.206Z,100.00
2022-10-01T07:59:31.235Z,100.00
2022-10-01T08:02:33.039Z,100.00
2022-10-01T08:05:36.149Z,100.00
2022-10-01T08:08:37.800Z,100.00
2022-10-01T08:11:39.635Z,100.00
2022-10-01T08:14:41.394Z,100.00
2022-10-01T08:17:43.690Z,100.00
2022-10-01T08:20:46.127Z,100.00
2022-10-01T08:23:47.761Z,100.00
2022-10-01T08:26:55.924Z,100.00
2022-10-01T08:29:57.590Z,100.00
2022-10-01T08:33:01.093Z,100.00
2022-10-01T08:36:04.232Z,99.90
2022-10-01T08:39:05.975Z,99.35
2022-10-01T08:42:39.161Z,98.14
2022-10-01T08:45:45.745Z,97.82
2022-10-01T08:49:05.747Z,97.71
2022-10-01T08:52:23.385Z,97.92
2022-10-01T08:55:28.344Z,98.71
2022-10-01T08:58:41.387Z,96.01
2022-10-01T09:01:43.607Z,96.57
2022-10-01T09:04:46.713Z,95.59
2022-10-01T09:08:08.177Z,95.88
2022-10-01T09:11:29.189Z,94.12
2022-10-01T09:14:51.139Z,94.27
2022-10-01T09:17:58.613Z,92.61
2022-10-01T09:21:00.504Z,94.62
2022-10-01T09:24:05.109Z,93.36
2022-10-01T09:27:25.639Z,93.83
2022-10-01T09:30:30.142Z,94.78
2022-10-01T09:33:35.321Z,96.51
2022-10-01T09:36:41.953Z,95.24
2022-10-01T09:40:22.060Z,95.05
2022-10-01T09:43:27.645Z,95.06
2022-10-01T09:46:29.389Z,95.13
2022-10-01T09:49:39.521Z,95.70
2022-10-01T09:52:42.600Z,95.67
2022-10-01T09:55:50.019Z,96.08
2022-10-01T09:58:56.888Z,95.50
2022-10-01T10:02:01.308Z,96.78
2022-10-01T10:05:09.923Z,96.88
2022-10-01T10:08:33.599Z,97.49
2022-10-01T10:11:35.711Z,97.63
2022-10-01T10:14:41.883Z,98.35
2022-10-01T10:17:46.311Z,98.71
2022-10-01T10:20:52.654Z,99.09
2022-10-01T10:24:00.628Z,100.00
2022-10-01T10:27:05.176Z,100.00
2022-10-01T10:30:17.754Z,100.00
2022-10-01T10:33:21.951Z,100.00
2022-10-01T10:36:32.679Z,100.00
2022-10-01T10:39:39.143Z,100.00
2022-10-01T10:42:47.955Z,100.00
2022-10-01T10:45:56.375Z,100.00
2022-10-01T10:49:06.342Z,100.00
2022-10-01T10:52:20.858Z,100.00
2022-10-01T10:55:27.423Z,100.00
2022-10-01T10:58:34.622Z,100.00
2022-10-01T11:01:42.899Z,100.00
2022-10-01T11:04:46.011Z,100.00
2022-10-01T11:07:50.829Z,100.00
2022-10-01T11:11:09.039Z,100.00
2022-10-01T11:14:35.400Z,100.00
2022-10-01T11:18:18.426Z,100.00
2022-10-01T11:21:31.865Z,100.00
2022-10-01T11:24:48.892Z,100.00
2022-10-01T11:28:17.492Z,100.00
2022-10-01T11:31:40.615Z,100.00
2022-10-01T11:35:10.368Z,100.00
2022-10-01T11:38:11.994Z,100.00
2022-10-01T11:41:34.054Z,100.00
2022-10-01T11:44:51.141Z,100.00
2022-10-01T11:48:00.385Z,100.00
2022-10-01T11:51:08.678Z,100.00
2022-10-01T11:54:16.630Z,100.00
2022-10-01T11:57:37.821Z,100.00
2022-10-01T12:00:41.578Z,100.00
2022-10-01T12:03:52.079Z,100.00
2022-10-01T12:07:03.086Z,100.00
2022-10-01T12:10:22.985Z,100.00
2022-10-01T12:13:33.192Z,100.00
2022-10-01T12:16:52.082Z,100.00
2022-10-01T12:19:57.218Z,100.00
2022-10-01T12:23:02.605Z,100.00
2022-10-01T12:26:43.383Z,100.00
2022-10-01T12:29:44.968Z,100.00
2022-10-01T12:32:55.796Z,100.00
2022-10-01T12:36:12.157Z,100.00
2022-10-01T12:39:38.950Z,100.00
2022-10-01T12:43:04.383Z,100.00
2022-10-01T12:46:25.828Z,100.00
2022-10-01T12:49:59.413Z,100.00
2022-10-01T12:53:28.629Z,100.00
2022-10-01T12:56:40.207Z,100.00
2022-10-01T13:00:02.090Z,100.00
2022-10-01T13:03:28.623Z,100.00
2022-10-01T13:06:38.596Z,100.00
2022-10-01T13:09:49.641Z,100.00
2022-10-01T13:13:04.361Z,100.00
2022-10-01T13:16:21.764Z,100.00
2022-10-01T13:20:14.125Z,100.00
2022-10-01T13:23:33.944Z,100.00
2022-10-01T13:26:59.677Z,100.00
2022-10-01T13:30:14.116Z,100.00
2022-10-01T13:33:32.090Z,100.00
2022-10-01T13:36:36.427Z,100.00
2022-10-01T13:39:42.135Z,100.00
2022-10-01T13:42:47.004Z,100.00
2022-10-01T13:45:54.614Z,100.00
2022-10-01T13:49:00.152Z,100.00
2022-10-01T13:52:03.111Z,100.00
2022-10-01T13:55:05.095Z,100.00
2022-10-01T13:58:21.113Z,100.00
2022-10-01T14:01:24.217Z,100.00
2022-10-01T14:04:41.940Z,100.00
2022-10-01T14:07:46.361Z,100.00
2022-10-01T14:11:15.090Z,100.00
2022-10-01T14:14:47.682Z,100.00
2022-10-01T14:17:53.119Z,100.00
2022-10-01T14:21:15.422Z,100.00
2022-10-01T14:24:24.122Z,100.00
2022-10-01T14:27:44.487Z,100.00
2022-10-01T14:31:02.415Z,100.00
2022-10-01T14:34:10.036Z,100.00
2022-10-01T14:37:17.130Z,100.00
2022-10-01T14:40:22.852Z,100.00
2022-10-01T14:43:27.823Z,100.00
2022-10-01T14:46:29.568Z,99.56
2022-10-01T14:49:32.806Z,99.88
2022-10-01T14:52:35.713Z,99.38
2022-10-01T14:55:37.542Z,98.73
2022-10-01T14:58:41.640Z,97.92
2022-10-01T15:01:54.455Z,97.90
2022-10-01T15:04:57.543Z,97.93
2022-10-01T15:08:13.395Z,97.75
2022-10-01T15:11:28.674Z,97.40
2022-10-01T15:14:32.110Z,98.00
2022-10-01T15:17:36.103Z,97.44
2022-10-01T15:20:38.440Z,98.32
2022-10-01T15:23:41.436Z,98.30
2022-10-01T15:26:47.475Z,97.13
2022-10-01T15:29:56.419Z,98.39
2022-10-01T15:32:58.570Z,97.76
2022-10-01T15:36:04.045Z,97.38
2022-10-01T15:39:23.876Z,97.77
2022-10-01T15:42:31.536Z,97.50
2022-10-01T15:45:33.475Z,98.18
2022-10-01T15:48:35.274Z,97.87
2022-10-01T15:51:38.172Z,97.96
2022-10-01T15:54:42.928Z,97.81
2022-10-01T15:57:45.302Z,98.21
2022-10-01T16:00:47.553Z,98.94
2022-10-01T16:04:06.975Z,98.95
2022-10-01T16:07:19.809Z,98.62
2022-10-01T16:10:32.547Z,98.56
2022-10-01T16:13:39.277Z,98.83
2022-10-01T16:16:41.093Z,99.20
2022-10-01T16:19:44.461Z,98.66
2022-10-01T16:22:46.075Z,99.46
2022-10-01T16:25:47.928Z,99.27
2022-10-01T16:29:06.189Z,98.83
2022-10-01T16:32:12.656Z,99.15
2022-10-01T16:35:14.713Z,99.95
2022-10-01T16:38:16.388Z,99.92
2022-10-01T16:41:22.749Z,100.00
2022-10-01T16:44:24.428Z,100.00
2022-10-01T16:47:26.297Z,99.85
2022-10-01T16:50:28.088Z,99.73
2022-10-01T16:53:29.756Z,100.00
2022-10-01T16:56:31.403Z,100.00
2022-10-01T16:59:33.936Z,100.00
2022-10-01T17:02:35.646Z,100.00
2022-10-01T17:05:37.632Z,100.00
2022-10-01T17:08:39.245Z,100.00
2022-10-01T17:11:43.809Z,100.00
2022-10-01T17:14:45.606Z,100.00
2022-10-01T17:17:47.276Z,100.00
2022-10-01T17:20:48.901Z,100.00
2022-10-01T17:23:53.467Z,100.00
2022-10-01T17:26:55.398Z,100.00
2022-10-01T17:29:57.280Z,100.00
2022-10-01T17:33:00.133Z,100.00
2022-10-01T17:36:06.645Z,100.00
2022-10-01T17:39:08.527Z,100.00
2022-10-01T17:42:10.994Z,100.00
2022-10-01T17:45:14.219Z,100.00
2022-10-01T17:48:18.891Z,100.00
2022-10-01T17:51:23.840Z,100.00
2022-10-01T17:54:25.678Z,100.00
2022-10-01T17:57:27.518Z,100.00
2022-10-01T18:00:29.204Z,100.00
2022-10-01T18:03:30.794Z,100.00
2022-10-01T18:06:32.792Z,99.66
2022-10-01T18:09:35.816Z,99.79
2022-10-01T18:12:37.604Z,100.00
2022-10-01T18:15:39.254Z,100.00
2022-10-01T18:22:13.740Z,99.25
2022-10-01T18:25:16.900Z,99.75
2022-10-01T18:28:19.272Z,100.00
2022-10-01T18:31:28.675Z,99.71
2022-10-01T18:34:54.411Z,100.00
2022-10-01T18:38:01.816Z,99.81
2022-10-01T18:41:10.166Z,99.71
2022-10-01T18:44:20.287Z,99.72
2022-10-01T18:47:41.026Z,99.58
2022-10-01T18:51:09.276Z,99.94
2022-10-01T18:54:25.359Z,99.90
2022-10-01T18:57:30.305Z,99.96
2022-10-01T19:00:42.608Z,99.78
2022-10-01T19:04:06.095Z,100.00
2022-10-01T19:07:07.689Z,100.00
2022-10-01T19:10:34.112Z,99.66
2022-10-01T19:14:05.079Z,99.96
2022-10-01T19:17:31.772Z,99.79
2022-10-01T19:20:56.750Z,100.00
2022-10-01T19:24:10.720Z,100.00
2022-10-01T19:27:45.820Z,99.69
2022-10-01T19:30:53.847Z,99.51
2022-10-01T19:34:21.896Z,99.21
2022-10-01T19:37:30.884Z,99.51
2022-10-01T19:40:51.187Z,99.65
2022-10-01T19:43:59.994Z,99.88
2022-10-01T19:47:16.502Z,99.53
2022-10-01T19:50:21.169Z,99.84
2022-10-01T19:53:29.346Z,99.90
2022-10-01T19:56:33.964Z,99.89
2022-10-01T19:59:35.890Z,100.00
2022-10-01T20:02:42.355Z,100.00
2022-10-01T20:05:55.495Z,100.00
2022-10-01T20:09:01.674Z,100.00
2022-10-01T20:12:36.142Z,100.00
2022-10-01T20:15:40.773Z,100.00
2022-10-01T20:18:54.601Z,100.00
2022-10-01T20:22:22.082Z,100.00
2022-10-01T20:25:26.748Z,100.00
2022-10-01T20:28:42.197Z,100.00
2022-10-01T20:32:15.753Z,100.00
2022-10-01T20:35:42.059Z,100.00
2022-10-01T20:38:53.788Z,100.00
2022-10-01T20:41:56.302Z,100.00
2022-10-01T20:44:58.498Z,100.00
2022-10-01T20:48:11.932Z,100.00
2022-10-01T20:51:27.120Z,100.00
2022-10-01T20:54:41.365Z,100.00
2022-10-01T20:58:05.555Z,100.00
2022-10-01T21:01:14.035Z,100.00
2022-10-01T21:04:19.620Z,100.00
2022-10-01T21:07:37.865Z,100.00
2022-10-01T21:10:57.976Z,100.00
2022-10-01T21:14:22.859Z,100.00
2022-10-01T21:17:45.085Z,100.00
2022-10-01T21:21:15.964Z,100.00
2022-10-01T21:24:41.792Z,100.00
2022-10-01T21:28:26.798Z,100.00
2022-10-01T21:31:41.705Z,100.00
2022-10-01T21:34:59.318Z,100.00
2022-10-01T21:38:30.340Z,100.00
2022-10-01T21:41:48.369Z,100.00
2022-10-01T21:45:13.740Z,100.00
2022-10-01T21:48:24.484Z,100.00
2022-10-01T21:51:38.188Z,100.00
2022-10-01T21:55:02.044Z,100.00
2022-10-01T21:58:48.863Z,100.00
2022-10-01T22:02:09.881Z,100.00
2022-10-01T22:05:29.319Z,100.00
2022-10-01T22:08:49.215Z,100.00
2022-10-01T22:11:58.337Z,100.00
2022-10-01T22:15:01.101Z,100.00
2022-10-01T22:18:06.227Z,100.00
2022-10-01T22:21:12.151Z,100.00
2022-10-01T22:24:17.567Z,100.00
2022-10-01T22:27:24.878Z,100.00
2022-10-01T22:30:28.991Z,100.00
2022-10-01T22:33:40.679Z,100.00
2022-10-01T22:36:49.070Z,100.00
2022-10-01T22:39:57.909Z,100.00
2022-10-01T22:43:05.834Z,100.00
2022-10-01T22:46:44.558Z,100.00
2022-10-01T22:50:31.511Z,100.00
2022-10-01T22:53:42.361Z,100.00
2022-10-01T22:56:57.434Z,100.00
2022-10-01T23:00:10.828Z,100.00
2022-10-01T23:03:31.429Z,100.00
2022-10-01T23:07:07.923Z,100.00
2022-10-01T23:10:21.730Z,100.00
2022-10-01T23:13:28.844Z,100.00
2022-10-01T23:16:41.818Z,100.00
2022-10-01T23:19:49.553Z,100.00
2022-10-01T23:23:21.591Z,100.00
2022-10-01T23:26:35.037Z,100.00
2022-10-01T23:29:47.305Z,100.00
2022-10-01T23:33:13.711Z,100.00
2022-10-01T23:36:39.814Z,100.00
2022-10-01T23:40:07.776Z,100.00
2022-10-01T23:43:25.999Z,100.00
2022-10-01T23:46:31.546Z,100.00
2022-10-01T23:49:38.778Z,100.00
2022-10-01T23:53:15.328Z,100.00
2022-10-01T23:56:47.381Z,100.00
2022-10-01T23:59:58.643Z,100.00
